Time;durP1;ratioP1;P1;durP2;ratioP2;P2;SDS_P1;SDS_P2;PMS_P1;PMS_P2;Temp;Humidity;BMP_temperature;BMP_pressure;BME280_temperature;BME280_humidity;BME280_pressure;Samples;Min_cycle;Max_cycle;Signal;HPM_P1;HPM_P2
2022/05/14 00:02:07;;;;;;;6.63;5.60;;;15.10;99.90;;;;;;5028344;28;20215;-69
2022/05/14 00:04:32;;;;;;;5.23;4.50;;;14.90;99.90;;;;;;5027831;28;20941;-68
2022/05/14 00:07:01;;;;;;;9.97;5.17;;;14.80;99.90;;;;;;5028248;28;20301;-70
2022/05/14 00:09:26;;;;;;;8.80;4.57;;;14.80;99.90;;;;;;5028715;28;20207;-70
2022/05/14 00:14:36;;;;;;;7.13;4.50;;;14.60;99.90;;;;;;5035015;28;20209;-70
2022/05/14 00:17:02;;;;;;;6.13;5.03;;;14.50;99.90;;;;;;5038549;28;20422;-69
2022/05/14 00:19:28;;;;;;;6.33;5.27;;;14.50;99.90;;;;;;5020597;28;20191;-69
2022/05/14 00:21:53;;;;;;;7.53;5.53;;;14.40;99.90;;;;;;5012534;28;20837;-69
2022/05/14 00:24:19;;;;;;;8.57;5.27;;;14.30;99.90;;;;;;5011229;28;20590;-69
2022/05/14 00:26:45;;;;;;;6.30;4.87;;;14.20;99.90;;;;;;5009782;28;20215;-69
2022/05/14 00:29:13;;;;;;;10.63;4.83;;;14.20;99.90;;;;;;5011251;28;20224;-70
2022/05/14 00:31:38;;;;;;;5.60;5.10;;;14.30;99.90;;;;;;5012490;28;20184;-70
2022/05/14 00:34:04;;;;;;;5.30;4.80;;;14.30;99.90;;;;;;5012227;28;20410;-69
2022/05/14 00:36:30;;;;;;;6.67;5.30;;;14.30;99.90;;;;;;5018526;28;20194;-68
2022/05/14 00:38:55;;;;;;;5.90;5.30;;;14.30;99.90;;;;;;5026676;28;20438;-69
2022/05/14 00:41:21;;;;;;;6.33;5.73;;;14.20;99.90;;;;;;5039618;28;20243;-69
2022/05/14 00:43:54;;;;;;;5.77;5.27;;;14.00;99.90;;;;;;5029455;28;20692;-68
2022/05/14 00:46:24;;;;;;;8.83;6.20;;;14.00;99.90;;;;;;5025971;28;20202;-69
2022/05/14 00:48:52;;;;;;;6.00;5.43;;;14.00;99.90;;;;;;5029103;28;20462;-69
2022/05/14 00:51:25;;;;;;;7.70;6.20;;;14.00;99.90;;;;;;5028665;28;20621;-69
2022/05/14 00:53:53;;;;;;;6.70;5.57;;;13.90;99.90;;;;;;5027657;28;20414;-69
2022/05/14 00:56:24;;;;;;;8.67;5.50;;;13.80;99.90;;;;;;5028734;28;20458;-69
2022/05/14 00:59:01;;;;;;;9.00;6.10;;;13.70;99.90;;;;;;5028565;28;20425;-69
2022/05/14 01:01:27;;;;;;;6.60;5.53;;;13.80;99.90;;;;;;5019480;28;20470;-69
2022/05/14 01:03:52;;;;;;;6.67;5.83;;;13.70;99.90;;;;;;5009125;28;20410;-69
2022/05/14 01:06:19;;;;;;;9.10;5.80;;;13.60;99.90;;;;;;5008759;28;20595;-69
2022/05/14 01:08:47;;;;;;;7.40;5.77;;;13.40;99.90;;;;;;5008942;28;20632;-69
2022/05/14 01:11:14;;;;;;;9.50;6.23;;;13.40;99.90;;;;;;5008798;28;20498;-69
2022/05/14 01:13:40;;;;;;;8.50;6.82;;;13.40;99.90;;;;;;5007611;28;20525;-69
2022/05/14 01:16:06;;;;;;;8.03;6.87;;;13.40;99.90;;;;;;5008683;28;20204;-69
2022/05/14 01:18:35;;;;;;;8.30;6.80;;;13.40;99.90;;;;;;5009655;28;20188;-70
2022/05/14 01:21:15;;;;;;;7.67;6.70;;;13.30;99.90;;;;;;5008202;28;20977;-70
2022/05/14 01:26:41;;;;;;;8.57;6.70;;;13.30;99.90;;;;;;5012200;28;20469;-68
2022/05/14 01:29:11;;;;;;;10.63;6.43;;;13.20;99.90;;;;;;5011784;28;20431;-69
2022/05/14 01:31:37;;;;;;;9.57;8.00;;;13.10;99.90;;;;;;5012158;28;20410;-69
2022/05/14 01:34:06;;;;;;;8.20;6.90;;;13.10;99.90;;;;;;5012007;28;20445;-69
2022/05/14 01:36:33;;;;;;;8.50;6.73;;;13.00;99.90;;;;;;5024729;28;20449;-69
2022/05/14 01:38:59;;;;;;;9.87;7.23;;;12.90;99.90;;;;;;5030199;28;20449;-69
2022/05/14 01:41:24;;;;;;;8.53;5.93;;;12.80;99.90;;;;;;5031632;28;20400;-69
2022/05/14 01:43:50;;;;;;;9.53;6.77;;;12.90;99.90;;;;;;5031472;28;20228;-70
2022/05/14 01:46:16;;;;;;;10.10;6.83;;;13.00;99.90;;;;;;5031474;28;20187;-69
2022/05/14 01:48:41;;;;;;;7.00;6.30;;;12.90;99.90;;;;;;5030380;28;20672;-69
2022/05/14 01:51:07;;;;;;;8.10;6.67;;;13.00;99.90;;;;;;5031014;28;20195;-69
2022/05/14 01:53:33;;;;;;;7.73;5.80;;;13.00;99.90;;;;;;5021963;28;20251;-70
2022/05/14 01:55:59;;;;;;;8.80;6.50;;;13.00;99.90;;;;;;5011690;28;20164;-69
2022/05/14 01:58:37;;;;;;;9.40;6.97;;;13.00;99.90;;;;;;5011626;28;20545;-68
2022/05/14 02:01:18;;;;;;;8.20;6.47;;;13.00;99.90;;;;;;5011299;28;20187;-68
2022/05/14 02:03:46;;;;;;;10.17;6.77;;;12.90;99.90;;;;;;5011337;28;20466;-69
2022/05/14 02:06:12;;;;;;;10.90;7.20;;;12.80;99.90;;;;;;5011299;28;20458;-69
2022/05/14 02:08:38;;;;;;;12.33;7.13;;;12.70;99.90;;;;;;5011413;28;20406;-70
2022/05/14 02:11:04;;;;;;;10.50;7.50;;;12.80;99.90;;;;;;5012033;28;20450;-69
2022/05/14 02:13:30;;;;;;;7.43;6.73;;;12.60;99.90;;;;;;5027130;28;20175;-69
2022/05/14 02:15:56;;;;;;;9.03;7.17;;;12.60;99.90;;;;;;5031166;28;20409;-69
2022/05/14 02:18:23;;;;;;;7.03;6.33;;;12.60;99.90;;;;;;5030719;28;20485;-69
2022/05/14 02:20:49;;;;;;;10.23;7.30;;;12.60;99.90;;;;;;5030959;28;20426;-69
2022/05/14 02:23:15;;;;;;;10.23;7.87;;;12.60;99.90;;;;;;5030941;28;20417;-69
2022/05/14 02:25:42;;;;;;;7.30;5.90;;;12.70;99.90;;;;;;5030865;28;20481;-69
2022/05/14 02:28:07;;;;;;;10.20;7.00;;;12.60;99.90;;;;;;5029232;28;20406;-70
2022/05/14 02:30:33;;;;;;;9.50;7.33;;;12.60;99.90;;;;;;5030435;28;20449;-69
2022/05/14 02:32:59;;;;;;;8.93;7.83;;;12.70;99.90;;;;;;5032730;28;20171;-70
2022/05/14 02:35:25;;;;;;;9.17;7.20;;;12.60;99.90;;;;;;5035167;28;20204;-70
2022/05/14 02:37:50;;;;;;;7.37;6.33;;;12.60;99.90;;;;;;5013616;28;20195;-70
2022/05/14 02:40:16;;;;;;;7.40;5.73;;;12.60;99.90;;;;;;5031953;28;20867;-70
2022/05/14 02:42:41;;;;;;;8.40;5.43;;;12.70;99.90;;;;;;5035472;28;20186;-70
2022/05/14 02:45:08;;;;;;;12.10;6.43;;;12.80;99.90;;;;;;5032008;28;20199;-70
2022/05/14 02:47:33;;;;;;;6.97;6.03;;;12.80;99.90;;;;;;5031398;28;20244;-70
2022/05/14 02:49:59;;;;;;;6.87;6.17;;;12.80;99.90;;;;;;5024403;28;20438;-69
2022/05/14 02:52:24;;;;;;;7.13;5.70;;;12.80;99.90;;;;;;5011022;28;20170;-69
2022/05/14 02:54:51;;;;;;;6.13;4.93;;;12.80;99.90;;;;;;5010867;28;20172;-70
2022/05/14 02:57:17;;;;;;;5.83;5.30;;;12.80;99.90;;;;;;5010678;28;20765;-70
2022/05/14 02:59:43;;;;;;;8.20;5.40;;;12.80;99.90;;;;;;5010275;28;20437;-68
2022/05/14 03:02:09;;;;;;;10.47;4.77;;;12.90;99.90;;;;;;5010678;28;20430;-68
2022/05/14 03:04:37;;;;;;;5.70;4.50;;;12.90;99.90;;;;;;5014548;28;20410;-68
2022/05/14 03:07:06;;;;;;;6.10;4.70;;;13.00;99.90;;;;;;5030053;28;20856;-68
2022/05/14 03:09:32;;;;;;;5.53;4.47;;;12.90;99.90;;;;;;5029863;28;20508;-68
2022/05/14 03:11:58;;;;;;;8.10;5.30;;;12.90;99.90;;;;;;5030173;28;20502;-68
2022/05/14 03:14:23;;;;;;;7.20;4.07;;;12.90;99.90;;;;;;5030176;28;20497;-69
2022/05/14 03:16:49;;;;;;;7.27;5.43;;;12.90;99.90;;;;;;5029999;28;20177;-68
2022/05/14 03:19:14;;;;;;;5.70;4.13;;;12.90;99.90;;;;;;5029712;28;20203;-68
2022/05/14 03:21:40;;;;;;;4.40;4.00;;;13.00;99.90;;;;;;5027206;28;20546;-68
2022/05/14 03:24:07;;;;;;;5.97;4.60;;;13.00;99.90;;;;;;5010620;28;20175;-68
2022/05/14 03:26:32;;;;;;;8.20;4.50;;;12.90;99.90;;;;;;5010446;28;20462;-69
2022/05/14 03:28:58;;;;;;;5.90;4.07;;;12.90;99.90;;;;;;5010073;28;20981;-68
2022/05/14 03:31:23;;;;;;;7.63;4.00;;;12.90;99.90;;;;;;5009839;28;20171;-68
2022/05/14 03:33:49;;;;;;;6.37;3.80;;;12.90;99.90;;;;;;5010121;28;20225;-69
2022/05/14 03:36:15;;;;;;;4.53;3.87;;;12.90;99.90;;;;;;5010165;28;20180;-69
2022/05/14 03:38:40;;;;;;;7.23;4.07;;;13.00;99.90;;;;;;5009976;28;20180;-68
2022/05/14 03:41:07;;;;;;;6.73;3.87;;;13.00;99.90;;;;;;5029212;28;20256;-69
2022/05/14 03:43:34;;;;;;;7.07;4.23;;;13.10;99.90;;;;;;5029855;28;20216;-68
2022/05/14 03:46:00;;;;;;;4.30;3.90;;;13.10;99.90;;;;;;5029587;28;20457;-68
2022/05/14 03:48:26;;;;;;;10.80;4.00;;;13.10;99.90;;;;;;5028390;28;21002;-68
2022/05/14 03:50:52;;;;;;;7.10;3.60;;;13.20;99.90;;;;;;5028784;28;20469;-68
2022/05/14 03:53:18;;;;;;;8.30;3.73;;;13.20;99.90;;;;;;5030720;28;20195;-68
2022/05/14 03:55:44;;;;;;;6.93;3.90;;;13.10;99.90;;;;;;5029736;28;20183;-69
2022/05/14 03:58:10;;;;;;;4.50;3.60;;;13.10;99.90;;;;;;5027774;28;20494;-67
2022/05/14 04:00:35;;;;;;;6.50;4.17;;;13.20;99.90;;;;;;5028693;28;20210;-70
2022/05/14 04:03:02;;;;;;;7.10;3.97;;;13.20;99.90;;;;;;5029716;28;20221;-70
2022/05/14 04:05:27;;;;;;;5.00;4.37;;;13.10;99.90;;;;;;5030786;28;20214;-70
2022/05/14 04:07:53;;;;;;;4.87;3.50;;;13.20;99.90;;;;;;5027651;28;20520;-67
2022/05/14 04:10:19;;;;;;;3.43;3.13;;;13.20;99.90;;;;;;5028873;28;20214;-69
2022/05/14 04:12:45;;;;;;;8.00;3.67;;;13.20;99.90;;;;;;5029107;28;20409;-68
2022/05/14 04:15:13;;;;;;;6.13;3.40;;;13.20;99.90;;;;;;5029324;28;20803;-69
2022/05/14 04:17:38;;;;;;;5.73;3.37;;;13.20;99.90;;;;;;5027516;28;20183;-70
2022/05/14 04:20:05;;;;;;;7.53;3.30;;;13.20;99.90;;;;;;5016177;28;20471;-69
2022/05/14 04:22:31;;;;;;;5.50;3.20;;;13.20;99.90;;;;;;5008399;28;20587;-69
2022/05/14 04:24:56;;;;;;;6.47;3.43;;;13.10;99.90;;;;;;5008301;28;20450;-69
2022/05/14 04:27:22;;;;;;;6.00;3.70;;;13.20;99.90;;;;;;5007776;28;20822;-69
2022/05/14 04:29:47;;;;;;;6.07;3.47;;;13.10;99.90;;;;;;5008855;28;20259;-71
2022/05/14 04:32:14;;;;;;;11.70;4.23;;;13.10;99.90;;;;;;5008635;28;20270;-69
2022/05/14 04:34:40;;;;;;;6.00;3.53;;;13.00;99.90;;;;;;5037770;28;20757;-69
2022/05/14 04:37:06;;;;;;;6.73;4.43;;;13.00;99.90;;;;;;5034624;28;20457;-70
2022/05/14 04:39:31;;;;;;;5.40;3.30;;;13.10;99.90;;;;;;5027284;28;20476;-70
2022/05/14 04:42:06;;;;;;;6.37;3.30;;;13.20;99.90;;;;;;5027843;28;20281;-70
2022/05/14 04:44:33;;;;;;;5.30;3.60;;;13.20;99.90;;;;;;5027981;28;20221;-67
2022/05/14 04:46:59;;;;;;;5.37;3.10;;;13.30;99.90;;;;;;5026382;27;20563;-68
2022/05/14 04:49:24;;;;;;;6.73;3.77;;;13.30;99.90;;;;;;5027071;28;20478;-68
2022/05/14 04:51:50;;;;;;;9.03;3.70;;;13.40;99.90;;;;;;5027676;28;20817;-68
2022/05/14 04:54:15;;;;;;;6.33;3.30;;;13.40;99.90;;;;;;5027655;28;20210;-69
2022/05/14 04:56:42;;;;;;;5.40;3.47;;;13.40;99.90;;;;;;5027411;28;20534;-68
2022/05/14 04:59:08;;;;;;;11.90;3.63;;;13.40;99.90;;;;;;5028055;28;20227;-69
2022/05/14 05:01:33;;;;;;;4.63;3.40;;;13.40;99.90;;;;;;5031125;28;20489;-68
2022/05/14 05:03:59;;;;;;;4.07;3.50;;;13.40;99.90;;;;;;5066013;23;20490;-69
2022/05/14 05:06:25;;;;;;;7.17;3.60;;;13.50;99.90;;;;;;5085117;28;20287;-69
2022/05/14 05:08:54;;;;;;;5.17;3.67;;;13.40;99.90;;;;;;5079245;28;20566;-69
2022/05/14 05:11:21;;;;;;;12.20;4.40;;;13.50;99.90;;;;;;5081196;28;20325;-69
2022/05/14 05:13:47;;;;;;;9.17;4.57;;;13.60;99.90;;;;;;5081623;28;20454;-70
2022/05/14 05:16:12;;;;;;;7.50;3.40;;;13.50;99.90;;;;;;5073599;28;20451;-69
2022/05/14 05:18:39;;;;;;;11.43;5.13;;;13.50;99.90;;;;;;5061910;28;20229;-69
2022/05/14 05:21:06;;;;;;;7.87;3.90;;;13.40;99.90;;;;;;5072960;28;20207;-70
2022/05/14 05:23:32;;;;;;;4.30;3.73;;;13.50;99.90;;;;;;5073910;28;20432;-69
2022/05/14 05:25:58;;;;;;;5.23;3.20;;;13.60;99.90;;;;;;5073016;28;21046;-71
2022/05/14 05:28:26;;;;;;;5.80;3.70;;;13.60;99.90;;;;;;5055967;28;20363;-70
2022/05/14 05:30:52;;;;;;;5.37;3.10;;;13.60;99.90;;;;;;5037585;28;20861;-69
2022/05/14 05:33:22;;;;;;;4.80;3.60;;;13.50;99.90;;;;;;5036284;28;20926;-69
2022/05/14 05:35:48;;;;;;;7.90;3.17;;;13.60;99.90;;;;;;5069045;28;20447;-69
2022/05/14 05:38:14;;;;;;;6.33;3.17;;;13.50;99.90;;;;;;5057700;28;20444;-70
2022/05/14 05:40:40;;;;;;;3.87;2.97;;;13.50;99.90;;;;;;5052944;28;20445;-68
2022/05/14 05:43:08;;;;;;;5.53;3.47;;;13.60;99.90;;;;;;5053838;28;20769;-70
2022/05/14 05:45:34;;;;;;;5.30;3.30;;;13.60;99.90;;;;;;5052012;28;20468;-70
2022/05/14 05:47:59;;;;;;;5.13;3.00;;;13.70;99.90;;;;;;5052018;28;20451;-70
2022/05/14 05:50:26;;;;;;;6.53;3.40;;;13.70;99.90;;;;;;5062725;28;20211;-71
2022/05/14 05:52:52;;;;;;;9.80;3.80;;;13.70;99.90;;;;;;5069052;28;20225;-70
2022/05/14 05:58:03;;;;;;;6.70;3.73;;;13.80;99.90;;;;;;5062841;28;20515;-70
2022/05/14 06:00:28;;;;;;;6.43;3.80;;;13.90;99.90;;;;;;5031890;28;20428;-70
2022/05/14 06:02:54;;;;;;;4.07;3.33;;;13.90;99.90;;;;;;5032927;28;20293;-70
2022/05/14 06:05:20;;;;;;;7.43;3.40;;;14.00;99.90;;;;;;5032566;28;20313;-70
2022/05/14 06:07:46;;;;;;;4.37;3.40;;;13.90;99.90;;;;;;5033040;28;20436;-70
2022/05/14 06:10:15;;;;;;;17.47;4.90;;;13.90;99.90;;;;;;5032730;28;20547;-70
2022/05/14 06:12:41;;;;;;;5.50;3.40;;;13.90;99.90;;;;;;5033042;28;20278;-72
2022/05/14 06:15:11;;;;;;;4.27;3.40;;;13.90;99.90;;;;;;5033483;28;20508;-71
2022/05/14 06:17:37;;;;;;;6.40;4.03;;;14.00;99.90;;;;;;5033339;28;20186;-69
2022/05/14 06:20:05;;;;;;;6.10;3.40;;;14.00;99.90;;;;;;5035809;28;20472;-70
2022/05/14 06:22:30;;;;;;;5.33;3.50;;;14.10;99.90;;;;;;5032963;28;20626;-70
2022/05/14 06:24:56;;;;;;;6.40;3.33;;;14.20;99.90;;;;;;5034803;28;20528;-69
2022/05/14 06:27:22;;;;;;;7.83;4.47;;;14.20;99.90;;;;;;5072836;28;20244;-69
2022/05/14 06:29:47;;;;;;;4.00;3.43;;;14.30;99.90;;;;;;5064007;28;20202;-70
2022/05/14 06:32:13;;;;;;;3.90;3.17;;;14.40;99.90;;;;;;5033156;28;20203;-69
2022/05/14 06:34:38;;;;;;;8.87;3.70;;;14.40;99.90;;;;;;5032084;28;20233;-68
2022/05/14 06:37:04;;;;;;;4.53;3.30;;;14.50;99.90;;;;;;5044557;28;20356;-69
2022/05/14 06:39:30;;;;;;;4.00;3.37;;;14.50;99.90;;;;;;5052802;28;20205;-68
2022/05/14 06:41:57;;;;;;;7.27;3.77;;;14.60;99.90;;;;;;5052488;28;20959;-68
2022/05/14 06:44:23;;;;;;;7.03;3.60;;;14.50;99.90;;;;;;5046351;28;20203;-68
2022/05/14 06:46:48;;;;;;;7.07;4.37;;;14.50;99.90;;;;;;5032172;28;20503;-68
2022/05/14 06:49:14;;;;;;;6.57;3.90;;;14.50;99.90;;;;;;5045494;28;20201;-68
2022/05/14 06:51:40;;;;;;;5.10;3.60;;;14.40;99.90;;;;;;5071936;28;20288;-67
2022/05/14 06:54:08;;;;;;;5.10;3.70;;;14.40;99.90;;;;;;5070112;28;20280;-68
2022/05/14 06:56:38;;;;;;;6.87;5.20;;;14.50;99.90;;;;;;5032238;28;20927;-67
2022/05/14 06:59:04;;;;;;;6.27;4.90;;;14.60;99.90;;;;;;5032537;28;20440;-68
2022/05/14 07:01:30;;;;;;;13.47;3.70;;;14.80;99.90;;;;;;5032082;28;20946;-69
2022/05/14 07:06:43;;;;;;;11.40;4.27;;;14.70;99.90;;;;;;5033364;28;20569;-70
2022/05/14 07:09:08;;;;;;;6.67;3.90;;;14.50;99.90;;;;;;5032734;28;20516;-69
2022/05/14 07:11:35;;;;;;;8.60;4.03;;;14.50;99.90;;;;;;5032348;28;20559;-70
2022/05/14 07:14:02;;;;;;;5.77;4.10;;;14.60;99.90;;;;;;5032297;28;20241;-70
2022/05/14 07:16:27;;;;;;;6.10;4.03;;;14.60;99.90;;;;;;5033702;28;20477;-69
2022/05/14 07:18:53;;;;;;;5.87;4.33;;;14.50;99.90;;;;;;5038618;28;20460;-69
2022/05/14 07:21:19;;;;;;;5.40;4.30;;;14.50;99.90;;;;;;5071467;28;20197;-69
2022/05/14 07:23:44;;;;;;;6.43;4.10;;;14.50;99.90;;;;;;5071077;28;20237;-68
2022/05/14 07:26:10;;;;;;;8.33;4.67;;;14.70;99.90;;;;;;5067927;28;20944;-72
2022/05/14 07:28:36;;;;;;;6.60;3.77;;;14.90;99.90;;;;;;5051980;28;20245;-68
2022/05/14 07:31:02;;;;;;;8.60;4.23;;;15.10;99.90;;;;;;5051481;28;20941;-70
2022/05/14 07:33:29;;;;;;;6.67;3.50;;;15.20;99.90;;;;;;5051488;28;20214;-70
2022/05/14 07:35:58;;;;;;;7.83;4.60;;;15.40;99.90;;;;;;5053158;28;20401;-70
2022/05/14 07:38:24;;;;;;;10.17;4.37;;;15.60;99.90;;;;;;5039035;28;20830;-67
2022/05/14 07:40:50;;;;;;;8.23;4.40;;;15.70;99.90;;;;;;5032649;28;20428;-68
2022/05/14 07:43:20;;;;;;;7.23;4.20;;;15.90;99.90;;;;;;5032784;28;20655;-68
2022/05/14 07:45:51;;;;;;;5.03;3.87;;;16.00;99.90;;;;;;5032587;28;20457;-68
2022/05/14 07:48:21;;;;;;;6.03;4.30;;;16.00;99.90;;;;;;5033872;28;20425;-69
2022/05/14 07:50:48;;;;;;;6.37;3.63;;;16.10;99.40;;;;;;5031466;28;20402;-69
2022/05/14 07:53:15;;;;;;;7.97;4.57;;;16.20;99.30;;;;;;5032000;28;20421;-71
2022/05/14 07:55:43;;;;;;;6.43;4.20;;;16.10;99.50;;;;;;5032165;28;20436;-68
2022/05/14 07:58:09;;;;;;;9.10;4.27;;;16.30;99.40;;;;;;5032708;28;20445;-67
2022/05/14 08:00:35;;;;;;;5.53;3.90;;;16.30;99.10;;;;;;5031283;28;20416;-68
2022/05/14 08:03:01;;;;;;;8.33;3.63;;;16.50;99.10;;;;;;5031573;28;20508;-67
2022/05/14 08:05:27;;;;;;;6.33;4.40;;;16.70;98.80;;;;;;5031734;28;20210;-70
2022/05/14 08:07:52;;;;;;;5.27;4.53;;;16.70;98.50;;;;;;5032372;28;20785;-68
2022/05/14 08:10:19;;;;;;;6.47;4.40;;;16.80;98.50;;;;;;5032894;28;20622;-68
2022/05/14 08:12:51;;;;;;;9.93;4.50;;;16.80;98.40;;;;;;5032205;28;20640;-68
2022/05/14 08:15:18;;;;;;;8.43;3.80;;;16.80;98.30;;;;;;5032093;28;20464;-68
2022/05/14 08:17:45;;;;;;;7.50;3.77;;;17.00;98.40;;;;;;5031740;28;20406;-68
2022/05/14 08:20:12;;;;;;;5.27;3.47;;;17.10;98.20;;;;;;5032626;28;20421;-68
2022/05/14 08:25:22;;;;;;;7.47;3.97;;;17.40;97.70;;;;;;5041028;28;20618;-69
2022/05/14 08:27:48;;;;;;;4.90;3.87;;;17.40;97.40;;;;;;5071964;28;20404;-68
2022/05/14 08:30:29;;;;;;;7.40;4.40;;;17.50;97.50;;;;;;5065748;28;20427;-69
2022/05/14 08:32:54;;;;;;;6.90;3.87;;;17.60;97.30;;;;;;5031581;28;20179;-68
2022/05/14 08:35:21;;;;;;;6.83;3.80;;;17.60;97.30;;;;;;5031932;28;20436;-68
2022/05/14 08:37:49;;;;;;;6.00;4.20;;;17.60;97.30;;;;;;5049460;28;20432;-68
2022/05/14 08:40:28;;;;;;;7.70;3.87;;;17.70;97.20;;;;;;5052279;28;20429;-69
2022/05/14 08:43:03;;;;;;;6.17;3.50;;;17.90;97.00;;;;;;5051457;28;20920;-69
2022/05/14 08:45:33;;;;;;;5.53;3.90;;;18.00;96.70;;;;;;5052638;28;20472;-68
2022/05/14 08:48:03;;;;;;;4.63;3.70;;;18.10;96.70;;;;;;5051191;28;20431;-68
2022/05/14 08:50:34;;;;;;;5.23;3.87;;;18.20;96.50;;;;;;5051642;28;20424;-68
2022/05/14 08:53:01;;;;;;;6.07;3.63;;;18.10;96.50;;;;;;5055838;28;20676;-68
2022/05/14 08:55:36;;;;;;;5.50;4.00;;;18.20;96.50;;;;;;5070916;28;20443;-68
2022/05/14 08:58:18;;;;;;;5.97;3.60;;;18.40;96.30;;;;;;5064949;28;20422;-69
2022/05/14 09:00:44;;;;;;;5.50;3.30;;;18.40;96.20;;;;;;5071216;28;20548;-69
2022/05/14 09:03:09;;;;;;;6.57;4.37;;;18.50;96.00;;;;;;5071477;28;20981;-69
2022/05/14 09:05:36;;;;;;;6.40;3.73;;;18.50;96.00;;;;;;5070893;28;20216;-68
2022/05/14 09:08:02;;;;;;;6.57;3.57;;;18.70;95.90;;;;;;5065103;28;20190;-71
2022/05/14 09:10:38;;;;;;;8.67;3.70;;;18.80;95.70;;;;;;5056161;28;20416;-70
2022/05/14 09:13:14;;;;;;;8.73;3.93;;;18.80;95.60;;;;;;5072972;28;20415;-70
2022/05/14 09:15:57;;;;;;;6.23;4.10;;;18.90;95.50;;;;;;5041770;28;20477;-71
2022/05/14 09:18:41;;;;;;;5.93;3.60;;;18.70;95.50;;;;;;5051491;28;20937;-69
2022/05/14 09:21:21;;;;;;;9.63;4.50;;;18.60;95.60;;;;;;5065778;28;20430;-69
2022/05/14 09:23:56;;;;;;;6.63;3.67;;;18.70;95.60;;;;;;5073578;28;20510;-71
2022/05/14 09:26:32;;;;;;;8.30;3.73;;;18.80;95.50;;;;;;5073636;28;20466;-69
2022/05/14 09:29:10;;;;;;;7.20;4.27;;;18.80;95.70;;;;;;5068542;28;20444;-71
2022/05/14 09:31:36;;;;;;;9.60;3.93;;;18.90;95.70;;;;;;5041773;28;20450;-72
2022/05/14 09:34:06;;;;;;;10.10;3.73;;;19.00;95.60;;;;;;5071287;28;20863;-69
2022/05/14 09:36:36;;;;;;;7.90;4.07;;;19.20;95.40;;;;;;5073406;28;20420;-70
2022/05/14 09:39:11;;;;;;;7.57;3.63;;;19.20;95.40;;;;;;5073936;28;20408;-69
2022/05/14 09:41:49;;;;;;;8.00;4.10;;;19.30;95.30;;;;;;5056145;28;20953;-69
2022/05/14 09:44:27;;;;;;;12.00;4.00;;;19.20;95.40;;;;;;5070285;28;20972;-70
2022/05/14 09:47:07;;;;;;;5.70;4.00;;;19.30;95.40;;;;;;5073239;28;20463;-70
2022/05/14 09:49:33;;;;;;;9.57;3.80;;;19.50;95.10;;;;;;5035728;28;20893;-70
2022/05/14 09:52:04;;;;;;;11.97;3.60;;;19.50;94.80;;;;;;5051695;28;20450;-70
2022/05/14 09:54:41;;;;;;;29.30;7.63;;;19.70;94.90;;;;;;5077751;28;20202;-71
2022/05/14 09:57:39;;;;;;;13.37;4.63;;;19.90;94.70;;;;;;5076400;28;20466;-70
2022/05/14 10:00:27;;;;;;;7.97;4.30;;;19.90;94.00;;;;;;5074078;28;20415;-70
2022/05/14 10:03:22;;;;;;;5.07;3.60;;;19.70;94.70;;;;;;5051816;28;20457;-69
2022/05/14 10:06:18;;;;;;;9.27;4.17;;;19.80;94.70;;;;;;5056337;28;20486;-70
2022/05/14 10:08:53;;;;;;;7.60;3.90;;;19.90;94.30;;;;;;5076488;28;20440;-71
2022/05/14 10:11:37;;;;;;;6.80;4.13;;;19.90;94.00;;;;;;5072886;28;20448;-70
2022/05/14 10:14:22;;;;;;;6.17;3.50;;;20.10;93.90;;;;;;5061561;28;20431;-70
2022/05/14 10:17:03;;;;;;;8.60;4.27;;;20.20;94.00;;;;;;5049473;28;20470;-70
2022/05/14 10:19:46;;;;;;;8.73;4.07;;;20.40;93.50;;;;;;5072696;28;20467;-70
2022/05/14 10:29:14;;;;;;;7.60;4.00;;;20.30;93.30;;;;;;5034201;28;20487;-70
2022/05/14 10:32:14;;;;;;;4.13;3.10;;;20.30;93.30;;;;;;5034066;28;20450;-70
2022/05/14 10:34:45;;;;;;;4.93;3.07;;;20.50;93.20;;;;;;5009228;28;20445;-70
2022/05/14 10:37:28;;;;;;;6.17;3.30;;;20.60;93.00;;;;;;5011350;28;20830;-70
2022/05/14 10:40:05;;;;;;;5.50;3.10;;;20.80;93.00;;;;;;5011482;28;20776;-70
2022/05/14 10:42:46;;;;;;;8.87;4.20;;;20.80;92.00;;;;;;5011833;28;20194;-69
2022/05/14 10:45:20;;;;;;;5.50;3.63;;;20.50;91.80;;;;;;5011112;28;21036;-70
2022/05/14 10:47:54;;;;;;;6.40;3.90;;;20.30;91.90;;;;;;5011448;28;20423;-70
2022/05/14 10:50:21;;;;;;;5.23;3.73;;;20.20;92.00;;;;;;5011351;28;20407;-69
2022/05/14 10:52:50;;;;;;;5.60;3.30;;;20.40;92.20;;;;;;5011000;28;20419;-69
2022/05/14 10:55:18;;;;;;;7.37;4.43;;;20.30;92.10;;;;;;5010872;28;20446;-69
2022/05/14 10:57:51;;;;;;;6.00;4.00;;;20.20;92.10;;;;;;5009824;28;20428;-69
2022/05/14 11:00:28;;;;;;;6.53;4.37;;;20.20;92.30;;;;;;5010363;28;20415;-69
2022/05/14 11:03:01;;;;;;;7.23;4.17;;;20.10;92.30;;;;;;5011062;28;20414;-71
2022/05/14 11:05:32;;;;;;;9.63;4.40;;;20.10;91.70;;;;;;5010666;28;20481;-71
2022/05/14 11:08:13;;;;;;;7.60;4.80;;;19.90;91.70;;;;;;5010660;28;20422;-72
2022/05/14 11:10:39;;;;;;;7.10;4.23;;;19.90;91.80;;;;;;5018836;28;20425;-71
2022/05/14 11:13:18;;;;;;;8.93;4.23;;;19.90;92.00;;;;;;5033121;28;20550;-70
2022/05/14 11:15:44;;;;;;;7.07;4.60;;;19.80;92.30;;;;;;5032902;28;20520;-71
2022/05/14 11:18:14;;;;;;;5.10;3.97;;;19.90;92.70;;;;;;5034524;28;20441;-71
2022/05/14 11:20:54;;;;;;;8.00;4.07;;;20.00;92.90;;;;;;5035843;28;20179;-73
2022/05/14 11:23:19;;;;;;;8.30;4.63;;;20.20;93.10;;;;;;5033259;28;20930;-71
2022/05/14 11:25:45;;;;;;;4.70;4.30;;;20.40;92.60;;;;;;5032737;28;20476;-70
2022/05/14 11:28:28;;;;;;;10.43;5.07;;;20.50;91.90;;;;;;5033155;28;20875;-70
2022/05/14 11:31:18;;;;;;;11.20;5.10;;;20.10;92.30;;;;;;5033395;28;20189;-70
2022/05/14 11:33:44;;;;;;;5.43;3.80;;;20.10;92.40;;;;;;5032651;28;20784;-70
2022/05/14 11:36:10;;;;;;;5.43;3.90;;;19.80;92.00;;;;;;5032693;28;20555;-70
2022/05/14 11:38:42;;;;;;;4.80;3.50;;;19.70;92.20;;;;;;5032457;28;20445;-71
2022/05/14 11:41:27;;;;;;;7.27;4.27;;;19.80;92.10;;;;;;5033447;28;20191;-69
2022/05/14 11:43:53;;;;;;;10.03;4.07;;;19.80;92.00;;;;;;5032611;28;20435;-70
2022/05/14 11:46:44;;;;;;;8.30;4.33;;;20.00;92.10;;;;;;5032252;28;20834;-70
2022/05/14 11:49:12;;;;;;;6.60;4.60;;;20.10;92.00;;;;;;5032290;28;20401;-68
2022/05/14 11:52:06;;;;;;;9.13;4.80;;;19.90;92.20;;;;;;5031960;28;20422;-70
2022/05/14 11:54:41;;;;;;;8.63;4.20;;;19.80;92.10;;;;;;5031681;28;20433;-70
2022/05/14 11:57:28;;;;;;;4.50;4.00;;;19.90;92.30;;;;;;5053807;28;20804;-70
2022/05/14 11:59:59;;;;;;;7.73;4.00;;;20.10;92.20;;;;;;5063693;28;20959;-70
2022/05/14 12:02:49;;;;;;;6.83;5.13;;;20.20;91.90;;;;;;5054362;28;20490;-70
2022/05/14 12:05:38;;;;;;;8.90;6.07;;;20.40;92.20;;;;;;5067148;28;20458;-71
2022/05/14 12:08:16;;;;;;;6.83;5.03;;;20.50;92.30;;;;;;5025174;28;21002;-71
2022/05/14 12:11:02;;;;;;;7.67;4.80;;;20.50;92.40;;;;;;5067683;28;20465;-71
2022/05/14 12:13:38;;;;;;;9.63;5.43;;;20.40;92.70;;;;;;5049418;28;20792;-70
2022/05/14 12:16:04;;;;;;;6.70;5.43;;;20.30;92.90;;;;;;5067144;28;20419;-70
2022/05/14 12:18:32;;;;;;;7.43;4.93;;;20.30;93.00;;;;;;5054132;28;21295;-70
2022/05/14 12:21:00;;;;;;;8.07;4.80;;;20.20;93.10;;;;;;5057636;28;20415;-70
2022/05/14 12:23:39;;;;;;;8.27;4.20;;;20.40;92.70;;;;;;5052281;28;20516;-71
2022/05/14 12:26:20;;;;;;;5.27;4.53;;;20.50;92.50;;;;;;5053072;28;20459;-69
2022/05/14 12:28:47;;;;;;;9.00;5.03;;;20.60;92.30;;;;;;5067237;28;20449;-70
2022/05/14 12:33:58;;;;;;;7.57;5.00;;;20.30;92.40;;;;;;5045910;28;20567;-71
2022/05/14 12:36:27;;;;;;;6.30;4.90;;;20.30;92.30;;;;;;5064927;28;20511;-70
2022/05/14 12:38:52;;;;;;;6.67;5.07;;;20.20;91.90;;;;;;5067640;28;20427;-71
2022/05/14 12:41:32;;;;;;;10.43;5.50;;;20.20;91.70;;;;;;5066574;28;21027;-71
2022/05/14 12:44:10;;;;;;;8.67;4.80;;;20.20;91.30;;;;;;5067106;28;20802;-71
2022/05/14 12:46:46;;;;;;;5.60;4.50;;;20.20;91.50;;;;;;5057559;28;20460;-71
2022/05/14 12:49:41;;;;;;;9.27;4.37;;;20.30;91.30;;;;;;5048735;28;20415;-70
2022/05/14 12:52:14;;;;;;;10.03;6.00;;;20.40;91.50;;;;;;5056552;28;20432;-69
2022/05/14 12:54:52;;;;;;;6.77;4.90;;;20.60;91.60;;;;;;5057349;28;20925;-70
2022/05/14 12:57:19;;;;;;;10.47;4.37;;;20.70;91.00;;;;;;5040451;28;20469;-71
2022/05/14 12:59:44;;;;;;;9.00;5.13;;;20.70;90.40;;;;;;5022560;28;21143;-69
2022/05/14 13:02:19;;;;;;;9.03;4.67;;;20.80;90.50;;;;;;5065176;28;20420;-71
2022/05/14 13:04:59;;;;;;;6.70;4.70;;;20.90;90.50;;;;;;5064980;28;20205;-71
2022/05/14 13:07:24;;;;;;;8.13;4.77;;;21.10;90.20;;;;;;5062954;28;20434;-71
2022/05/14 13:09:51;;;;;;;7.47;5.00;;;21.20;90.20;;;;;;5059666;28;20477;-70
2022/05/14 13:12:21;;;;;;;12.20;5.27;;;21.30;90.20;;;;;;5065049;28;20192;-71
2022/05/14 13:14:54;;;;;;;8.23;5.20;;;21.40;88.90;;;;;;5042798;28;20413;-73
2022/05/14 13:17:28;;;;;;;10.03;4.73;;;21.50;89.20;;;;;;5054955;28;20899;-72
2022/05/14 13:19:57;;;;;;;8.40;3.80;;;21.60;89.50;;;;;;5033930;28;20510;-72
2022/05/14 13:22:33;;;;;;;7.70;4.73;;;21.80;89.10;;;;;;5015534;28;20417;-71